This is the latest recevied weather packets stored in our database for station/object KN4QD-13. If no packets are shown the sender has not sent any weather packets the latest 10 day(s).
| Time | Temp. | Humidity | Pressure | Rain* | Wind** | Luminosity | Snow |
|---|---|---|---|---|---|---|---|
| 1777558937 | 14.44° C | 76% | 1010.9 hPa | 0 mm | - | - | - |
| 1777553537 | 11.67° C | 88% | 1010.4 hPa | 0 mm | - | - | - |
| 1777552337 | 11.67° C | 89% | 1010.6 hPa | 0 mm | - | - | - |
| 1777550537 | 10.56° C | 92% | 1010.4 hPa | 0 mm | - | - | - |
| 1777549337 | 11.11° C | 92% | 1010.3 hPa | 0 mm | - | - | - |
| 1777548737 | 11.11° C | 93% | 1010.2 hPa | 0 mm | - | - | - |
| 1777546377 | 11.11° C | 93% | 1010.9 hPa | 0 mm | - | - | - |
| 1777538537 | 12.22° C | 94% | 1010.7 hPa | 0 mm | - | - | - |
| 1777537337 | 12.22° C | 94% | 1010.1 hPa | 0 mm | - | - | - |
| 1777536737 | 12.22° C | 94% | 1010.1 hPa | 0 mm | - | - | - |
| 1777533736 | 12.22° C | 94% | 1010.5 hPa | 0 mm | - | - | - |
| 1777530736 | 12.78° C | 92% | 1010.3 hPa | 0 mm | - | - | - |
| 1777529536 | 13.33° C | 90% | 1011.1 hPa | 0 mm | - | - | - |
| 1777523536 | 13.89° C | 89% | 1012.7 hPa | 0 mm | - | - | - |
| 1777522336 | 14.44° C | 89% | 1012.7 hPa | 0 mm | - | - | - |
| 1777518136 | 14.44° C | 89% | 1012.9 hPa | 0 mm | - | - | - |
| 1777516336 | 15° C | 88% | 1012.7 hPa | 0 mm | - | - | - |
| 1777515736 | 15° C | 87% | 1012.7 hPa | 0 mm | - | - | - |
| 1777510336 | 16.11° C | 86% | 1011.6 hPa | 0 mm | - | - | - |
| 1777509156 | 16.67° C | 85% | 1011.6 hPa | 0 mm | - | - | - |
| 1777503736 | 17.78° C | 79% | 1011 hPa | 0 mm | - | - | - |
| 1777502536 | 18.33° C | 80% | 1011 hPa | 0 mm | - | - | - |
| 1777501936 | 18.33° C | 80% | 1011 hPa | 0 mm | - | - | - |
| 1777499536 | 19.44° C | 78% | 1011.2 hPa | 0 mm | - | - | - |
| 1777497736 | 20° C | 73% | 1011.2 hPa | 0 mm | - | - | - |
* Rain latest hour (hover to see other rain measurements)
** Current wind speed in m/s (hover to see current wind gust speed)